UBC Young Douglas Fir (YF) Site

Current climate data:

Measured at 12:00:00, 2017-08-17 (Local time)

 Air temperature        =  22.24 C 
 Relative humidity      =  57.07 % 
 Wind speed             =   0.18 m/s
 Wind direction         =  97.10  
 Barometric pressure    =  64.28 kPa 
 Precipitation (last 30 min) =   0.00 mm 
 Precipitation (24h totals ending at  4:00 AM today)  =   0.00 mm 
 Precipitation (24h totals ending at 12:00 PM today)  =   0.00 mm 
 Cumulative Precipitation (2017) =  NaN mm 

Current Picture (Time stamp:UTC)  (Full size image)

Fire index data:

Year  Month  Day  Hour  Tair(C) RH(%) Wind(m/s) W_Dir(deg)  Rain(mm)   ffmc     dmc      dc     bui     isi     fwi     dsr     Rating
2017      7   18   13   24.97   37.73    0.14     77.19      0.00     87.63   44.64  136.31   49.09    3.13    8.94    1.31       3  
2017      7   19   13   24.07   44.69    0.15     85.76      0.00     88.59   47.91  144.35   52.37    3.60   10.45    1.73       3  
2017      7   20   13   19.32   73.92    0.21    349.98      0.00     85.78   49.16  151.53   54.29    2.44    7.65    1.00       3  
2017      7   21   13   15.77   87.73    0.02    154.28      0.00     82.23   49.65  158.07   55.62    1.47    4.80    0.44       3  
2017      7   22   13   18.64   81.46    0.34    100.31      0.50     82.18   50.51  165.13   57.24    1.55    5.16    0.50       3  
2017      7   23   13   21.35   54.74    0.25     10.83      0.00     85.06   52.89  172.68   59.91    2.22    7.50    0.96       3  
2017      7   24   13   22.01   58.93    0.23    106.35      0.00     85.76   55.12  180.34   62.49    2.44    8.37    1.17       3  
2017      7   25   13   24.23   51.26    0.23     84.90      0.00     87.20   58.02  188.41   65.57    2.99   10.26    1.68       3  
2017      7   26   13   24.78   52.79    0.20     52.52      0.00     87.55   60.89  196.57   68.63    3.13   10.94    1.88       3  
2017      7   27   13   22.76   56.67    0.27    108.50      0.00     87.60   63.32  204.37   71.36    3.19   11.38    2.01       4* 
2017      7   28   13   23.13   52.47    0.22     94.90      0.00     87.65   66.02  212.24   74.28    3.18   11.64    2.10       4* 
2017      7   29   13   22.74   53.94    0.15    116.76      0.00     87.69   68.60  220.04   77.11    3.16   11.84    2.16       4* 
2017      7   30   13   23.96   54.13    0.16      6.37      0.00     87.74   71.30  228.05   80.04    3.20   12.19    2.27       4* 
2017      7   31   13   25.66   42.17    0.18     81.70      0.00     89.20   74.94  236.38   83.61    3.95   14.77    3.19       4* 
2017      8    1   13   27.64   41.33    0.18     83.60      0.00     89.98   78.42  244.36   87.02    4.41   16.44    3.86       4* 
2017      8    2   13   30.34   38.05    0.23    115.14      0.00     91.05   82.44  252.82   90.83    5.19   18.98    4.98       4* 
2017      8    3   13   29.91   40.71    0.16     78.49      0.00     91.10   86.23  261.21   94.49    5.16   19.29    5.12       4* 
2017      8    4   13   27.97   43.76    0.13     94.93      0.00     91.15   89.61  269.25   97.82    5.17   19.67    5.31       4* 
2017      8    5   13   26.30   46.94    0.13    113.71      0.00     90.74   92.61  276.99  100.89    4.88   19.16    5.06       4* 
2017      8    6   13   25.61   54.84    0.11    102.57      0.00     89.55   95.10  284.60  103.63    4.10   17.09    4.14       4* 
2017      8    7   13   25.55   53.59    0.17     83.78      0.00     89.35   97.65  292.20  106.41    4.03   17.08    4.13       4* 
2017      8    8   13   26.18   50.21    0.18    117.70      0.00     89.40  100.46  299.92  109.35    4.06   17.43    4.28       4* 
2017      8    9   13   27.92   46.48    0.19    114.63      0.00     89.45  103.66  307.95  112.58    4.10   17.78    4.43       4* 
2017      8   10   13   27.22   48.97    0.18     82.56      0.00     89.50  106.65  315.85  115.66    4.12   18.07    4.56       4* 
2017      8   11   13   27.30   49.86    0.21    107.04      0.00     89.54  109.59  323.77  118.72    4.18   18.47    4.75       5**
2017      8   12   13   23.44   58.89    0.33    109.15      0.00     88.43  111.67  330.99  121.15    3.63   16.81    4.02       5**
2017      8   13   13   19.30   63.66    0.27    106.21      0.00     87.12  113.20  337.47  123.14    2.98   14.58    3.12       4* 
2017      8   14   13   18.83   57.11    0.17     82.73      1.01     81.17  114.97  343.87  125.25    1.33    7.55    0.97       4* 
2017      8   15   13   22.13   48.33    0.22     27.26      0.00     85.66  117.44  350.85  127.88    2.41   12.53    2.39       4* 
2017      8   16   13   24.19   51.45    0.32    123.48      0.00     87.16  119.98  358.21  130.60    3.02   15.10    3.32       4* 

(c) 2017 Biomet Group, University of British Columbia, Canada